메인 페이지
METAR-TAF:

METAR-TAF

공항 :

Resistencia, 아르헨티나

위도: 27-27S, 경도: 059-03W, 고도: 53m

현재 날씨관측

예보는 54분 전, 18:00시(UTC)에 발표되었습니다.
11kt
온도 30°C
습도 46%
기압 1002 hPa
시정 10km 이상
1500m 미만 상공 구름 및 적란운 없음

METAR: SARE 141800Z 01011KT CAVOK 30/17 Q1002

시각: 15:54 (18:54 UTC)

예보

예보는 1 시간 54분 전, 17:00시(UTC)에 발표되었습니다.
예보 대상 시간: 14일 18시부터 15일 18시까지 (UTC)
15kt
시정 10km 이상
1500m 미만 상공 구름 및 적란운 없음
전환 중
14일 23시부터 15일 01시까지 (UTC)
북북동5kt
전환 중
15일 06시부터 15일 08시까지 (UTC)
남남동10kt
시정 10km 이상
고도 2500ft 상공 구름 많음

TAF: SARE 141700Z 1418/1518 36015KT CAVOK TX31/1418Z TN21/1509Z BECMG 1423/1501 02005KT BECMG 1506/1508 16010KT 9999 BKN025

4,000개 이상의 공항 관측 자료 및 예보 (METAR 및 TAF 보고).

지도상에서 검색 가능한 기상관측소가 노란 점과 빨간 점으로 표시되어 있습니다.

기상관측소 명을 보려면 표시 위로 마우스를 이동하세요.

날씨 관측과 예보를 보려면 클릭하세요.

지도 변경 : 확대하려면 엑스 표시가 있는 녹색 버튼, 축소하려면 빼기 표시가 있는 녹색 버튼, 다음 페이지의 지도를 보려면 녹색 화살표를 클릭하세요.


METAR-TAF: